sensor_id;sensor_type;location;lat;lon;timestamp;P1;durP1;ratioP1;P2;durP2;ratioP2
32196;SDS011;18697;42.770;23.400;2022-12-01T00:00:40;0.70;;;0.70;;
32196;SDS011;18697;42.770;23.400;2022-12-01T00:03:05;0.70;;;0.70;;
32196;SDS011;18697;42.770;23.400;2022-12-01T00:05:31;3.90;;;2.55;;
32196;SDS011;18697;42.770;23.400;2022-12-01T00:07:56;0.55;;;0.55;;
32196;SDS011;18697;42.770;23.400;2022-12-01T00:10:23;0.70;;;0.70;;
32196;SDS011;18697;42.770;23.400;2022-12-01T00:15:22;2.85;;;1.10;;
32196;SDS011;18697;42.770;23.400;2022-12-01T00:17:49;1.75;;;1.02;;
32196;SDS011;18697;42.770;23.400;2022-12-01T00:20:15;1.48;;;1.30;;
32196;SDS011;18697;42.770;23.400;2022-12-01T00:22:42;2.58;;;0.82;;
32196;SDS011;18697;42.770;23.400;2022-12-01T00:25:08;3.70;;;1.50;;
32196;SDS011;18697;42.770;23.400;2022-12-01T00:27:34;1.27;;;1.05;;
32196;SDS011;18697;42.770;23.400;2022-12-01T00:29:59;2.17;;;0.90;;
32196;SDS011;18697;42.770;23.400;2022-12-01T00:32:25;1.02;;;1.00;;
32196;SDS011;18697;42.770;23.400;2022-12-01T00:34:50;1.05;;;0.80;;
32196;SDS011;18697;42.770;23.400;2022-12-01T00:37:16;0.75;;;0.75;;
32196;SDS011;18697;42.770;23.400;2022-12-01T00:39:41;0.60;;;0.60;;
32196;SDS011;18697;42.770;23.400;2022-12-01T00:42:06;0.80;;;0.80;;
32196;SDS011;18697;42.770;23.400;2022-12-01T00:44:35;0.57;;;0.57;;
32196;SDS011;18697;42.770;23.400;2022-12-01T00:47:01;0.70;;;0.70;;
32196;SDS011;18697;42.770;23.400;2022-12-01T00:49:26;0.52;;;0.52;;
32196;SDS011;18697;42.770;23.400;2022-12-01T00:51:52;0.50;;;0.50;;
32196;SDS011;18697;42.770;23.400;2022-12-01T00:54:17;0.77;;;0.70;;
32196;SDS011;18697;42.770;23.400;2022-12-01T00:56:42;0.60;;;0.60;;
32196;SDS011;18697;42.770;23.400;2022-12-01T00:59:08;0.90;;;0.90;;
32196;SDS011;18697;42.770;23.400;2022-12-01T01:01:33;1.10;;;1.10;;
32196;SDS011;18697;42.770;23.400;2022-12-01T01:03:59;1.10;;;1.00;;
32196;SDS011;18697;42.770;23.400;2022-12-01T01:06:24;1.48;;;1.13;;
32196;SDS011;18697;42.770;23.400;2022-12-01T01:08:50;1.38;;;1.27;;
32196;SDS011;18697;42.770;23.400;2022-12-01T01:11:15;2.08;;;1.15;;
32196;SDS011;18697;42.770;23.400;2022-12-01T01:13:40;0.90;;;0.90;;
32196;SDS011;18697;42.770;23.400;2022-12-01T01:16:07;1.23;;;1.13;;
32196;SDS011;18697;42.770;23.400;2022-12-01T01:18:38;0.93;;;0.93;;
32196;SDS011;18697;42.770;23.400;2022-12-01T01:21:05;1.10;;;1.00;;
32196;SDS011;18697;42.770;23.400;2022-12-01T01:23:32;1.20;;;1.10;;
32196;SDS011;18697;42.770;23.400;2022-12-01T01:26:01;7.63;;;5.13;;
32196;SDS011;18697;42.770;23.400;2022-12-01T01:28:28;1.02;;;1.02;;
32196;SDS011;18697;42.770;23.400;2022-12-01T01:30:55;3.25;;;1.08;;
32196;SDS011;18697;42.770;23.400;2022-12-01T01:33:20;1.10;;;1.02;;
32196;SDS011;18697;42.770;23.400;2022-12-01T01:35:45;1.20;;;1.10;;
32196;SDS011;18697;42.770;23.400;2022-12-01T01:38:11;0.73;;;0.73;;
32196;SDS011;18697;42.770;23.400;2022-12-01T01:40:43;1.13;;;1.10;;
32196;SDS011;18697;42.770;23.400;2022-12-01T01:43:12;1.85;;;0.93;;
32196;SDS011;18697;42.770;23.400;2022-12-01T01:45:40;0.60;;;0.60;;
32196;SDS011;18697;42.770;23.400;2022-12-01T01:48:05;0.80;;;0.70;;
32196;SDS011;18697;42.770;23.400;2022-12-01T01:50:32;0.85;;;0.80;;
32196;SDS011;18697;42.770;23.400;2022-12-01T01:52:59;0.75;;;0.75;;
32196;SDS011;18697;42.770;23.400;2022-12-01T01:55:30;1.90;;;1.17;;
32196;SDS011;18697;42.770;23.400;2022-12-01T01:57:57;1.42;;;1.13;;
32196;SDS011;18697;42.770;23.400;2022-12-01T02:00:24;1.77;;;1.38;;
32196;SDS011;18697;42.770;23.400;2022-12-01T02:02:49;1.08;;;0.80;;
32196;SDS011;18697;42.770;23.400;2022-12-01T02:07:52;0.85;;;0.85;;
32196;SDS011;18697;42.770;23.400;2022-12-01T02:10:20;2.00;;;1.00;;
32196;SDS011;18697;42.770;23.400;2022-12-01T02:18:18;1.05;;;0.70;;
32196;SDS011;18697;42.770;23.400;2022-12-01T02:20:53;1.00;;;1.00;;
32196;SDS011;18697;42.770;23.400;2022-12-01T02:37:42;0.63;;;0.63;;
32196;SDS011;18697;42.770;23.400;2022-12-01T02:42:22;0.50;;;0.50;;
32196;SDS011;18697;42.770;23.400;2022-12-01T02:45:38;0.60;;;0.60;;
32196;SDS011;18697;42.770;23.400;2022-12-01T02:48:11;0.70;;;0.70;;
32196;SDS011;18697;42.770;23.400;2022-12-01T02:50:44;0.70;;;0.70;;
32196;SDS011;18697;42.770;23.400;2022-12-01T02:53:11;0.60;;;0.60;;
32196;SDS011;18697;42.770;23.400;2022-12-01T02:55:52;3.97;;;1.70;;
32196;SDS011;18697;42.770;23.400;2022-12-01T02:58:20;0.70;;;0.70;;
32196;SDS011;18697;42.770;23.400;2022-12-01T03:06:26;1.33;;;1.33;;
32196;SDS011;18697;42.770;23.400;2022-12-01T03:11:32;0.68;;;0.68;;
32196;SDS011;18697;42.770;23.400;2022-12-01T03:19:28;0.50;;;0.50;;
32196;SDS011;18697;42.770;23.400;2022-12-01T03:22:09;0.73;;;0.73;;
32196;SDS011;18697;42.770;23.400;2022-12-01T03:24:39;0.60;;;0.60;;
32196;SDS011;18697;42.770;23.400;2022-12-01T03:27:06;0.70;;;0.70;;
32196;SDS011;18697;42.770;23.400;2022-12-01T03:29:38;0.52;;;0.52;;
32196;SDS011;18697;42.770;23.400;2022-12-01T03:32:14;0.65;;;0.65;;
32196;SDS011;18697;42.770;23.400;2022-12-01T03:34:48;0.57;;;0.57;;
32196;SDS011;18697;42.770;23.400;2022-12-01T03:37:24;0.70;;;0.70;;
32196;SDS011;18697;42.770;23.400;2022-12-01T03:39:56;0.70;;;0.70;;
32196;SDS011;18697;42.770;23.400;2022-12-01T03:42:25;0.60;;;0.60;;
32196;SDS011;18697;42.770;23.400;2022-12-01T03:44:56;0.55;;;0.55;;
32196;SDS011;18697;42.770;23.400;2022-12-01T03:47:25;0.60;;;0.60;;
32196;SDS011;18697;42.770;23.400;2022-12-01T03:49:56;0.57;;;0.57;;
32196;SDS011;18697;42.770;23.400;2022-12-01T04:00:14;0.82;;;0.70;;
32196;SDS011;18697;42.770;23.400;2022-12-01T04:02:41;0.60;;;0.60;;
32196;SDS011;18697;42.770;23.400;2022-12-01T04:05:09;1.27;;;0.70;;
32196;SDS011;18697;42.770;23.400;2022-12-01T04:07:35;0.60;;;0.60;;
32196;SDS011;18697;42.770;23.400;2022-12-01T04:10:02;0.60;;;0.60;;
32196;SDS011;18697;42.770;23.400;2022-12-01T04:12:28;0.60;;;0.60;;
32196;SDS011;18697;42.770;23.400;2022-12-01T04:14:54;0.50;;;0.50;;
32196;SDS011;18697;42.770;23.400;2022-12-01T04:17:41;0.50;;;0.50;;
32196;SDS011;18697;42.770;23.400;2022-12-01T04:20:11;0.68;;;0.68;;
32196;SDS011;18697;42.770;23.400;2022-12-01T04:22:38;0.70;;;0.70;;
32196;SDS011;18697;42.770;23.400;2022-12-01T04:25:04;0.50;;;0.50;;
32196;SDS011;18697;42.770;23.400;2022-12-01T04:27:30;0.80;;;0.80;;
32196;SDS011;18697;42.770;23.400;2022-12-01T04:29:56;0.60;;;0.60;;
32196;SDS011;18697;42.770;23.400;2022-12-01T04:32:21;0.80;;;0.80;;
32196;SDS011;18697;42.770;23.400;2022-12-01T04:34:47;0.60;;;0.60;;
32196;SDS011;18697;42.770;23.400;2022-12-01T04:37:12;0.93;;;0.93;;
32196;SDS011;18697;42.770;23.400;2022-12-01T04:39:38;0.60;;;0.60;;
32196;SDS011;18697;42.770;23.400;2022-12-01T04:42:06;0.70;;;0.70;;
32196;SDS011;18697;42.770;23.400;2022-12-01T04:44:32;0.60;;;0.60;;
32196;SDS011;18697;42.770;23.400;2022-12-01T04:46:57;0.60;;;0.60;;
32196;SDS011;18697;42.770;23.400;2022-12-01T04:49:22;0.90;;;0.90;;
32196;SDS011;18697;42.770;23.400;2022-12-01T04:51:48;1.10;;;0.98;;
32196;SDS011;18697;42.770;23.400;2022-12-01T04:54:14;1.17;;;0.90;;
32196;SDS011;18697;42.770;23.400;2022-12-01T04:56:39;1.40;;;1.40;;
32196;SDS011;18697;42.770;23.400;2022-12-01T04:59:06;0.90;;;0.90;;
32196;SDS011;18697;42.770;23.400;2022-12-01T05:01:31;0.90;;;0.90;;
32196;SDS011;18697;42.770;23.400;2022-12-01T05:03:57;1.10;;;1.10;;
32196;SDS011;18697;42.770;23.400;2022-12-01T05:06:26;1.13;;;0.80;;
32196;SDS011;18697;42.770;23.400;2022-12-01T05:08:53;0.80;;;0.80;;
32196;SDS011;18697;42.770;23.400;2022-12-01T05:11:20;0.70;;;0.70;;
32196;SDS011;18697;42.770;23.400;2022-12-01T05:13:47;0.80;;;0.80;;
32196;SDS011;18697;42.770;23.400;2022-12-01T05:16:20;1.75;;;0.65;;
32196;SDS011;18697;42.770;23.400;2022-12-01T05:18:49;1.48;;;0.70;;
32196;SDS011;18697;42.770;23.400;2022-12-01T05:21:36;1.33;;;1.33;;
32196;SDS011;18697;42.770;23.400;2022-12-01T05:24:02;1.60;;;1.60;;
32196;SDS011;18697;42.770;23.400;2022-12-01T05:26:28;1.10;;;1.10;;
32196;SDS011;18697;42.770;23.400;2022-12-01T05:28:53;1.95;;;1.85;;
32196;SDS011;18697;42.770;23.400;2022-12-01T05:31:18;5.00;;;4.70;;
32196;SDS011;18697;42.770;23.400;2022-12-01T05:33:44;3.22;;;3.08;;
32196;SDS011;18697;42.770;23.400;2022-12-01T05:36:09;2.60;;;2.50;;
32196;SDS011;18697;42.770;23.400;2022-12-01T05:38:34;3.30;;;3.10;;
32196;SDS011;18697;42.770;23.400;2022-12-01T05:41:00;1.60;;;1.55;;
32196;SDS011;18697;42.770;23.400;2022-12-01T05:43:25;4.80;;;4.40;;
32196;SDS011;18697;42.770;23.400;2022-12-01T05:45:50;3.20;;;3.00;;
32196;SDS011;18697;42.770;23.400;2022-12-01T05:48:16;1.20;;;1.20;;
32196;SDS011;18697;42.770;23.400;2022-12-01T05:50:42;1.60;;;1.50;;
32196;SDS011;18697;42.770;23.400;2022-12-01T05:53:09;3.10;;;2.95;;
32196;SDS011;18697;42.770;23.400;2022-12-01T05:55:36;4.60;;;4.30;;
32196;SDS011;18697;42.770;23.400;2022-12-01T05:58:01;8.73;;;7.93;;
32196;SDS011;18697;42.770;23.400;2022-12-01T06:00:27;5.15;;;4.25;;
32196;SDS011;18697;42.770;23.400;2022-12-01T06:02:52;7.20;;;6.70;;
32196;SDS011;18697;42.770;23.400;2022-12-01T06:05:18;3.78;;;3.55;;
32196;SDS011;18697;42.770;23.400;2022-12-01T06:07:43;2.85;;;2.65;;
32196;SDS011;18697;42.770;23.400;2022-12-01T06:10:09;1.98;;;1.70;;
32196;SDS011;18697;42.770;23.400;2022-12-01T06:12:35;2.78;;;2.47;;
32196;SDS011;18697;42.770;23.400;2022-12-01T06:15:01;3.83;;;3.60;;
32196;SDS011;18697;42.770;23.400;2022-12-01T06:17:27;1.73;;;1.63;;
32196;SDS011;18697;42.770;23.400;2022-12-01T06:19:53;3.50;;;1.52;;
32196;SDS011;18697;42.770;23.400;2022-12-01T06:22:18;2.75;;;1.38;;
32196;SDS011;18697;42.770;23.400;2022-12-01T06:24:43;2.45;;;1.77;;
32196;SDS011;18697;42.770;23.400;2022-12-01T06:27:09;1.42;;;1.25;;
32196;SDS011;18697;42.770;23.400;2022-12-01T06:29:34;3.33;;;2.10;;
32196;SDS011;18697;42.770;23.400;2022-12-01T06:32:00;1.17;;;0.90;;
32196;SDS011;18697;42.770;23.400;2022-12-01T06:34:25;1.30;;;1.30;;
32196;SDS011;18697;42.770;23.400;2022-12-01T06:36:50;2.90;;;1.48;;
32196;SDS011;18697;42.770;23.400;2022-12-01T06:39:16;4.18;;;1.50;;
32196;SDS011;18697;42.770;23.400;2022-12-01T06:41:41;2.95;;;2.30;;
32196;SDS011;18697;42.770;23.400;2022-12-01T06:44:07;5.55;;;4.25;;
32196;SDS011;18697;42.770;23.400;2022-12-01T06:46:33;1.33;;;1.23;;
32196;SDS011;18697;42.770;23.400;2022-12-01T06:48:58;9.52;;;3.92;;
32196;SDS011;18697;42.770;23.400;2022-12-01T06:51:24;3.10;;;1.70;;
32196;SDS011;18697;42.770;23.400;2022-12-01T06:53:55;3.75;;;2.35;;
32196;SDS011;18697;42.770;23.400;2022-12-01T06:56:21;2.22;;;2.08;;
32196;SDS011;18697;42.770;23.400;2022-12-01T06:58:50;3.72;;;2.70;;
32196;SDS011;18697;42.770;23.400;2022-12-01T07:01:17;6.97;;;2.88;;
32196;SDS011;18697;42.770;23.400;2022-12-01T07:03:49;4.13;;;2.80;;
32196;SDS011;18697;42.770;23.400;2022-12-01T07:06:15;15.30;;;9.70;;
32196;SDS011;18697;42.770;23.400;2022-12-01T07:08:41;2.85;;;2.60;;
32196;SDS011;18697;42.770;23.400;2022-12-01T07:11:07;3.55;;;2.65;;
32196;SDS011;18697;42.770;23.400;2022-12-01T07:13:36;18.17;;;9.30;;
32196;SDS011;18697;42.770;23.400;2022-12-01T07:16:02;4.05;;;2.30;;
32196;SDS011;18697;42.770;23.400;2022-12-01T07:18:28;3.72;;;2.28;;
32196;SDS011;18697;42.770;23.400;2022-12-01T07:20:58;24.52;;;11.10;;
32196;SDS011;18697;42.770;23.400;2022-12-01T07:23:25;6.53;;;3.10;;
32196;SDS011;18697;42.770;23.400;2022-12-01T07:26:03;22.27;;;17.80;;
32196;SDS011;18697;42.770;23.400;2022-12-01T07:28:30;20.63;;;7.35;;
32196;SDS011;18697;42.770;23.400;2022-12-01T07:31:03;4.13;;;2.33;;
32196;SDS011;18697;42.770;23.400;2022-12-01T07:33:33;6.55;;;2.90;;
32196;SDS011;18697;42.770;23.400;2022-12-01T07:35:59;11.60;;;5.68;;
32196;SDS011;18697;42.770;23.400;2022-12-01T07:38:26;2.35;;;2.00;;
32196;SDS011;18697;42.770;23.400;2022-12-01T07:40:53;7.85;;;4.05;;
32196;SDS011;18697;42.770;23.400;2022-12-01T07:43:18;2.95;;;2.50;;
32196;SDS011;18697;42.770;23.400;2022-12-01T07:45:44;1.98;;;1.60;;
32196;SDS011;18697;42.770;23.400;2022-12-01T07:48:09;3.45;;;1.90;;
32196;SDS011;18697;42.770;23.400;2022-12-01T07:50:34;3.83;;;2.90;;
32196;SDS011;18697;42.770;23.400;2022-12-01T07:53:00;5.50;;;3.78;;
32196;SDS011;18697;42.770;23.400;2022-12-01T07:55:25;12.35;;;5.45;;
32196;SDS011;18697;42.770;23.400;2022-12-01T07:57:51;6.57;;;3.67;;
32196;SDS011;18697;42.770;23.400;2022-12-01T08:00:17;1.88;;;1.52;;
32196;SDS011;18697;42.770;23.400;2022-12-01T08:02:43;3.03;;;2.45;;
32196;SDS011;18697;42.770;23.400;2022-12-01T08:05:08;2.80;;;2.25;;
32196;SDS011;18697;42.770;23.400;2022-12-01T08:07:33;2.97;;;1.92;;
32196;SDS011;18697;42.770;23.400;2022-12-01T08:09:59;3.53;;;2.70;;
32196;SDS011;18697;42.770;23.400;2022-12-01T08:12:24;2.80;;;2.45;;
32196;SDS011;18697;42.770;23.400;2022-12-01T08:14:49;2.80;;;2.25;;
32196;SDS011;18697;42.770;23.400;2022-12-01T08:17:15;5.55;;;3.67;;
32196;SDS011;18697;42.770;23.400;2022-12-01T08:19:40;4.68;;;3.20;;
32196;SDS011;18697;42.770;23.400;2022-12-01T08:22:05;4.72;;;2.78;;
32196;SDS011;18697;42.770;23.400;2022-12-01T08:24:31;11.45;;;7.68;;
32196;SDS011;18697;42.770;23.400;2022-12-01T08:26:56;13.05;;;8.05;;
32196;SDS011;18697;42.770;23.400;2022-12-01T08:29:22;13.38;;;7.85;;
32196;SDS011;18697;42.770;23.400;2022-12-01T08:31:47;7.55;;;4.22;;
32196;SDS011;18697;42.770;23.400;2022-12-01T08:34:12;6.72;;;3.75;;
32196;SDS011;18697;42.770;23.400;2022-12-01T08:36:38;10.43;;;4.47;;
32196;SDS011;18697;42.770;23.400;2022-12-01T08:39:03;8.43;;;4.10;;
32196;SDS011;18697;42.770;23.400;2022-12-01T08:41:31;4.55;;;3.50;;
32196;SDS011;18697;42.770;23.400;2022-12-01T08:43:56;3.83;;;2.58;;
32196;SDS011;18697;42.770;23.400;2022-12-01T08:46:23;4.53;;;2.80;;
32196;SDS011;18697;42.770;23.400;2022-12-01T08:48:49;2.33;;;2.13;;
32196;SDS011;18697;42.770;23.400;2022-12-01T08:51:15;2.50;;;2.30;;
32196;SDS011;18697;42.770;23.400;2022-12-01T08:53:43;4.18;;;1.65;;
32196;SDS011;18697;42.770;23.400;2022-12-01T08:56:43;7.18;;;4.25;;
32196;SDS011;18697;42.770;23.400;2022-12-01T08:59:03;2.47;;;2.10;;
32196;SDS011;18697;42.770;23.400;2022-12-01T09:01:29;3.25;;;2.03;;
32196;SDS011;18697;42.770;23.400;2022-12-01T09:03:55;13.40;;;5.20;;
32196;SDS011;18697;42.770;23.400;2022-12-01T09:06:41;11.77;;;5.00;;
32196;SDS011;18697;42.770;23.400;2022-12-01T09:09:10;14.80;;;5.18;;
32196;SDS011;18697;42.770;23.400;2022-12-01T09:11:37;28.08;;;8.50;;
32196;SDS011;18697;42.770;23.400;2022-12-01T09:14:03;17.08;;;5.53;;
32196;SDS011;18697;42.770;23.400;2022-12-01T09:16:28;13.68;;;4.78;;
32196;SDS011;18697;42.770;23.400;2022-12-01T09:18:54;32.63;;;9.55;;
32196;SDS011;18697;42.770;23.400;2022-12-01T09:21:23;25.60;;;7.72;;
32196;SDS011;18697;42.770;23.400;2022-12-01T09:23:50;2.55;;;1.40;;
32196;SDS011;18697;42.770;23.400;2022-12-01T09:26:16;9.82;;;3.50;;
32196;SDS011;18697;42.770;23.400;2022-12-01T09:28:47;9.57;;;4.78;;
32196;SDS011;18697;42.770;23.400;2022-12-01T09:31:14;8.73;;;4.20;;
32196;SDS011;18697;42.770;23.400;2022-12-01T09:33:41;2.28;;;1.50;;
32196;SDS011;18697;42.770;23.400;2022-12-01T09:36:07;4.10;;;2.47;;
32196;SDS011;18697;42.770;23.400;2022-12-01T09:38:34;1.63;;;1.10;;
32196;SDS011;18697;42.770;23.400;2022-12-01T09:41:02;5.85;;;3.20;;
32196;SDS011;18697;42.770;23.400;2022-12-01T09:43:42;1.60;;;1.50;;
32196;SDS011;18697;42.770;23.400;2022-12-01T09:46:13;1.08;;;1.00;;
32196;SDS011;18697;42.770;23.400;2022-12-01T09:48:44;1.15;;;1.05;;
32196;SDS011;18697;42.770;23.400;2022-12-01T09:51:15;0.60;;;0.60;;
32196;SDS011;18697;42.770;23.400;2022-12-01T09:53:43;0.50;;;0.50;;
32196;SDS011;18697;42.770;23.400;2022-12-01T09:56:17;0.60;;;0.60;;
32196;SDS011;18697;42.770;23.400;2022-12-01T09:58:43;0.60;;;0.60;;
32196;SDS011;18697;42.770;23.400;2022-12-01T10:01:13;0.75;;;0.75;;
32196;SDS011;18697;42.770;23.400;2022-12-01T10:03:46;0.77;;;0.77;;
32196;SDS011;18697;42.770;23.400;2022-12-01T10:06:18;1.00;;;0.90;;
32196;SDS011;18697;42.770;23.400;2022-12-01T10:09:22;0.90;;;0.90;;
32196;SDS011;18697;42.770;23.400;2022-12-01T10:11:44;0.85;;;0.85;;
32196;SDS011;18697;42.770;23.400;2022-12-01T10:14:15;1.00;;;0.90;;
32196;SDS011;18697;42.770;23.400;2022-12-01T10:19:30;1.20;;;1.10;;
32196;SDS011;18697;42.770;23.400;2022-12-01T10:30:17;0.60;;;0.60;;
32196;SDS011;18697;42.770;23.400;2022-12-01T10:35:21;1.83;;;1.02;;
32196;SDS011;18697;42.770;23.400;2022-12-01T10:37:57;1.52;;;1.50;;
32196;SDS011;18697;42.770;23.400;2022-12-01T10:40:25;1.08;;;1.08;;
32196;SDS011;18697;42.770;23.400;2022-12-01T10:42:52;1.17;;;1.17;;
32196;SDS011;18697;42.770;23.400;2022-12-01T10:45:22;1.42;;;1.33;;
32196;SDS011;18697;42.770;23.400;2022-12-01T10:50:37;1.33;;;1.30;;
32196;SDS011;18697;42.770;23.400;2022-12-01T10:53:03;1.00;;;1.00;;
32196;SDS011;18697;42.770;23.400;2022-12-01T10:55:33;1.00;;;1.00;;
32196;SDS011;18697;42.770;23.400;2022-12-01T10:58:04;3.83;;;3.35;;
32196;SDS011;18697;42.770;23.400;2022-12-01T11:00:37;7.28;;;3.60;;
32196;SDS011;18697;42.770;23.400;2022-12-01T11:03:05;5.68;;;5.28;;
32196;SDS011;18697;42.770;23.400;2022-12-01T11:05:32;2.00;;;1.90;;
32196;SDS011;18697;42.770;23.400;2022-12-01T11:08:02;3.35;;;3.05;;
32196;SDS011;18697;42.770;23.400;2022-12-01T11:10:29;10.10;;;9.20;;
32196;SDS011;18697;42.770;23.400;2022-12-01T11:15:30;7.68;;;4.85;;
32196;SDS011;18697;42.770;23.400;2022-12-01T11:17:58;9.98;;;8.45;;
32196;SDS011;18697;42.770;23.400;2022-12-01T11:25:58;1.00;;;1.00;;
32196;SDS011;18697;42.770;23.400;2022-12-01T11:28:25;21.02;;;13.88;;
32196;SDS011;18697;42.770;23.400;2022-12-01T11:30:55;20.60;;;10.15;;
32196;SDS011;18697;42.770;23.400;2022-12-01T11:33:23;6.38;;;3.92;;
32196;SDS011;18697;42.770;23.400;2022-12-01T11:35:49;1.52;;;1.50;;
32196;SDS011;18697;42.770;23.400;2022-12-01T11:38:22;1.40;;;1.33;;
32196;SDS011;18697;42.770;23.400;2022-12-01T11:40:49;0.77;;;0.77;;
32196;SDS011;18697;42.770;23.400;2022-12-01T11:45:53;0.80;;;0.80;;
32196;SDS011;18697;42.770;23.400;2022-12-01T11:51:50;0.98;;;0.77;;
32196;SDS011;18697;42.770;23.400;2022-12-01T11:53:44;3.72;;;1.30;;
32196;SDS011;18697;42.770;23.400;2022-12-01T11:58:48;5.20;;;1.63;;
32196;SDS011;18697;42.770;23.400;2022-12-01T12:04:31;0.80;;;0.80;;
32196;SDS011;18697;42.770;23.400;2022-12-01T12:07:34;1.67;;;1.52;;
32196;SDS011;18697;42.770;23.400;2022-12-01T12:19:06;0.90;;;0.90;;
32196;SDS011;18697;42.770;23.400;2022-12-01T12:37:47;1.30;;;1.23;;
32196;SDS011;18697;42.770;23.400;2022-12-01T12:43:21;1.20;;;1.20;;
32196;SDS011;18697;42.770;23.400;2022-12-01T12:46:09;0.80;;;0.80;;
32196;SDS011;18697;42.770;23.400;2022-12-01T12:51:41;0.88;;;0.88;;
32196;SDS011;18697;42.770;23.400;2022-12-01T12:54:30;0.70;;;0.70;;
32196;SDS011;18697;42.770;23.400;2022-12-01T12:57:04;0.60;;;0.60;;
32196;SDS011;18697;42.770;23.400;2022-12-01T12:59:35;0.63;;;0.63;;
32196;SDS011;18697;42.770;23.400;2022-12-01T13:02:20;0.60;;;0.60;;
32196;SDS011;18697;42.770;23.400;2022-12-01T13:04:54;3.33;;;1.55;;
32196;SDS011;18697;42.770;23.400;2022-12-01T13:12:54;4.47;;;1.77;;
32196;SDS011;18697;42.770;23.400;2022-12-01T13:15:27;1.10;;;0.98;;
32196;SDS011;18697;42.770;23.400;2022-12-01T13:18:00;2.08;;;1.88;;
32196;SDS011;18697;42.770;23.400;2022-12-01T13:20:37;0.90;;;0.90;;
32196;SDS011;18697;42.770;23.400;2022-12-01T13:23:03;0.77;;;0.77;;
32196;SDS011;18697;42.770;23.400;2022-12-01T13:25:32;1.83;;;1.63;;
32196;SDS011;18697;42.770;23.400;2022-12-01T13:28:02;0.70;;;0.70;;
32196;SDS011;18697;42.770;23.400;2022-12-01T13:30:35;2.97;;;2.08;;
32196;SDS011;18697;42.770;23.400;2022-12-01T13:33:04;0.82;;;0.82;;
32196;SDS011;18697;42.770;23.400;2022-12-01T13:35:33;0.90;;;0.90;;
32196;SDS011;18697;42.770;23.400;2022-12-01T13:40:58;17.83;;;8.75;;
32196;SDS011;18697;42.770;23.400;2022-12-01T13:43:53;12.23;;;7.25;;
32196;SDS011;18697;42.770;23.400;2022-12-01T13:46:27;1.60;;;1.50;;
32196;SDS011;18697;42.770;23.400;2022-12-01T13:48:54;1.50;;;1.40;;
32196;SDS011;18697;42.770;23.400;2022-12-01T13:51:22;3.28;;;3.08;;
32196;SDS011;18697;42.770;23.400;2022-12-01T13:53:54;1.10;;;1.10;;
32196;SDS011;18697;42.770;23.400;2022-12-01T13:56:44;5.38;;;4.43;;
32196;SDS011;18697;42.770;23.400;2022-12-01T14:02:12;1.65;;;1.55;;
32196;SDS011;18697;42.770;23.400;2022-12-01T14:04:39;1.30;;;1.30;;
32196;SDS011;18697;42.770;23.400;2022-12-01T14:07:12;4.18;;;3.88;;
32196;SDS011;18697;42.770;23.400;2022-12-01T14:09:38;2.90;;;2.20;;
32196;SDS011;18697;42.770;23.400;2022-12-01T14:12:23;3.60;;;3.17;;
32196;SDS011;18697;42.770;23.400;2022-12-01T14:14:58;1.48;;;1.38;;
32196;SDS011;18697;42.770;23.400;2022-12-01T14:25:26;1.42;;;1.33;;
32196;SDS011;18697;42.770;23.400;2022-12-01T14:27:55;4.13;;;2.75;;
32196;SDS011;18697;42.770;23.400;2022-12-01T14:36:07;1.27;;;1.17;;
32196;SDS011;18697;42.770;23.400;2022-12-01T14:38:40;1.42;;;1.33;;
32196;SDS011;18697;42.770;23.400;2022-12-01T14:41:19;0.80;;;0.80;;
32196;SDS011;18697;42.770;23.400;2022-12-01T14:43:47;1.10;;;1.10;;
32196;SDS011;18697;42.770;23.400;2022-12-01T14:46:29;2.03;;;1.70;;
32196;SDS011;18697;42.770;23.400;2022-12-01T14:48:59;1.67;;;1.58;;
32196;SDS011;18697;42.770;23.400;2022-12-01T14:51:31;2.58;;;1.08;;
32196;SDS011;18697;42.770;23.400;2022-12-01T14:54:00;1.73;;;1.50;;
32196;SDS011;18697;42.770;23.400;2022-12-01T14:56:28;5.32;;;1.30;;
32196;SDS011;18697;42.770;23.400;2022-12-01T14:58:57;0.88;;;0.88;;
32196;SDS011;18697;42.770;23.400;2022-12-01T15:01:34;1.75;;;1.10;;
32196;SDS011;18697;42.770;23.400;2022-12-01T15:04:02;3.63;;;2.92;;
32196;SDS011;18697;42.770;23.400;2022-12-01T15:06:30;0.98;;;0.98;;
32196;SDS011;18697;42.770;23.400;2022-12-01T15:11:58;1.52;;;1.40;;
32196;SDS011;18697;42.770;23.400;2022-12-01T15:17:02;0.90;;;0.90;;
32196;SDS011;18697;42.770;23.400;2022-12-01T15:19:30;4.25;;;2.78;;
32196;SDS011;18697;42.770;23.400;2022-12-01T15:21:56;14.05;;;6.82;;
32196;SDS011;18697;42.770;23.400;2022-12-01T15:24:24;6.35;;;3.30;;
32196;SDS011;18697;42.770;23.400;2022-12-01T15:26:51;5.55;;;3.05;;
32196;SDS011;18697;42.770;23.400;2022-12-01T15:31:47;1.88;;;1.60;;
32196;SDS011;18697;42.770;23.400;2022-12-01T15:34:19;2.28;;;1.42;;
32196;SDS011;18697;42.770;23.400;2022-12-01T15:36:48;2.92;;;2.15;;
32196;SDS011;18697;42.770;23.400;2022-12-01T15:39:16;4.35;;;3.50;;
32196;SDS011;18697;42.770;23.400;2022-12-01T15:41:45;3.05;;;2.45;;
32196;SDS011;18697;42.770;23.400;2022-12-01T15:44:24;1.80;;;1.70;;
32196;SDS011;18697;42.770;23.400;2022-12-01T15:46:52;1.60;;;1.48;;
32196;SDS011;18697;42.770;23.400;2022-12-01T15:49:19;3.13;;;2.80;;
32196;SDS011;18697;42.770;23.400;2022-12-01T15:52:09;1.40;;;1.30;;
32196;SDS011;18697;42.770;23.400;2022-12-01T15:54:36;1.40;;;1.30;;
32196;SDS011;18697;42.770;23.400;2022-12-01T15:57:02;1.95;;;1.83;;
32196;SDS011;18697;42.770;23.400;2022-12-01T15:59:32;1.20;;;1.20;;
32196;SDS011;18697;42.770;23.400;2022-12-01T16:02:05;2.28;;;1.90;;
32196;SDS011;18697;42.770;23.400;2022-12-01T16:05:01;2.58;;;2.38;;
32196;SDS011;18697;42.770;23.400;2022-12-01T16:07:47;13.70;;;6.55;;
32196;SDS011;18697;42.770;23.400;2022-12-01T16:12:52;11.20;;;5.90;;
32196;SDS011;18697;42.770;23.400;2022-12-01T16:15:56;6.63;;;4.68;;
32196;SDS011;18697;42.770;23.400;2022-12-01T16:18:27;12.98;;;7.13;;
32196;SDS011;18697;42.770;23.400;2022-12-01T16:21:02;5.72;;;4.03;;
32196;SDS011;18697;42.770;23.400;2022-12-01T16:23:28;5.38;;;4.15;;
32196;SDS011;18697;42.770;23.400;2022-12-01T16:25:54;25.70;;;8.30;;
32196;SDS011;18697;42.770;23.400;2022-12-01T16:28:21;10.77;;;5.03;;
32196;SDS011;18697;42.770;23.400;2022-12-01T16:30:48;10.32;;;4.90;;
32196;SDS011;18697;42.770;23.400;2022-12-01T16:33:16;12.95;;;6.53;;
32196;SDS011;18697;42.770;23.400;2022-12-01T16:35:43;8.52;;;4.25;;
32196;SDS011;18697;42.770;23.400;2022-12-01T16:38:19;14.40;;;6.75;;
32196;SDS011;18697;42.770;23.400;2022-12-01T16:40:50;27.30;;;8.98;;
32196;SDS011;18697;42.770;23.400;2022-12-01T16:43:19;7.72;;;4.05;;
32196;SDS011;18697;42.770;23.400;2022-12-01T16:45:46;16.48;;;6.40;;
32196;SDS011;18697;42.770;23.400;2022-12-01T16:48:17;19.90;;;6.53;;
32196;SDS011;18697;42.770;23.400;2022-12-01T16:50:44;15.73;;;6.80;;
32196;SDS011;18697;42.770;23.400;2022-12-01T16:53:11;15.80;;;7.50;;
32196;SDS011;18697;42.770;23.400;2022-12-01T16:58:20;11.95;;;5.20;;
32196;SDS011;18697;42.770;23.400;2022-12-01T17:00:45;21.05;;;7.93;;
32196;SDS011;18697;42.770;23.400;2022-12-01T17:03:17;16.48;;;7.60;;
32196;SDS011;18697;42.770;23.400;2022-12-01T17:05:44;27.23;;;11.27;;
32196;SDS011;18697;42.770;23.400;2022-12-01T17:08:10;46.55;;;19.85;;
32196;SDS011;18697;42.770;23.400;2022-12-01T17:10:42;14.85;;;6.05;;
32196;SDS011;18697;42.770;23.400;2022-12-01T17:13:09;15.68;;;8.38;;
32196;SDS011;18697;42.770;23.400;2022-12-01T17:15:39;11.18;;;5.95;;
32196;SDS011;18697;42.770;23.400;2022-12-01T17:18:05;23.92;;;9.18;;